Time;durP1;ratioP1;P1;durP2;ratioP2;P2;SDS_P1;SDS_P2;PMS_P1;PMS_P2;Temp;Humidity;BMP_temperature;BMP_pressure;BME280_temperature;BME280_humidity;BME280_pressure;Samples;Min_cycle;Max_cycle;Signal;HPM_P1;HPM_P2
2021/03/30 00:02:01;;;;;;;10.63;5.83;;;;;;;-0.91;85.27;94435.02;1762075;80;21075;-76
2021/03/30 00:04:29;;;;;;;5.87;4.37;;;;;;;-0.92;85.66;94437.44;1761230;80;21372;-75
2021/03/30 00:06:56;;;;;;;6.58;4.30;;;;;;;-0.99;86.02;94429.82;1759066;81;21179;-76
2021/03/30 00:09:24;;;;;;;7.67;3.67;;;;;;;-1.06;86.47;94420.08;1762199;80;21617;-76
2021/03/30 00:11:52;;;;;;;4.67;3.90;;;;;;;-1.03;86.88;94422.16;1748921;82;21184;-75
2021/03/30 00:14:19;;;;;;;6.83;4.30;;;;;;;-1.05;86.99;94421.14;1759621;81;21206;-76
2021/03/30 00:16:48;;;;;;;5.87;3.58;;;;;;;-1.10;87.21;94417.22;1754732;80;21694;-75
2021/03/30 00:19:16;;;;;;;4.28;3.58;;;;;;;-1.15;87.51;94417.88;1719701;81;21226;-78
2021/03/30 00:21:43;;;;;;;4.72;3.40;;;;;;;-1.19;87.91;94424.89;1756402;80;21502;-76
2021/03/30 00:24:12;;;;;;;5.40;3.45;;;;;;;-1.14;88.21;94423.45;1757758;80;21194;-76
2021/03/30 00:26:40;;;;;;;4.10;3.58;;;;;;;-1.11;88.05;94422.31;1754959;80;21060;-75
2021/03/30 00:29:07;;;;;;;5.20;3.80;;;;;;;-1.07;88.08;94426.52;1756803;80;22506;-75
2021/03/30 00:31:35;;;;;;;9.28;5.25;;;;;;;-1.03;88.06;94416.28;1756185;81;21178;-75
2021/03/30 00:34:03;;;;;;;34.55;19.10;;;;;;;-0.99;88.04;94418.59;1755336;80;21108;-75
2021/03/30 00:36:31;;;;;;;18.57;11.60;;;;;;;-0.97;87.82;94413.52;1757680;80;21554;-75
2021/03/30 00:39:00;;;;;;;9.38;5.08;;;;;;;-0.95;87.75;94415.34;1663568;85;21076;-76
2021/03/30 00:41:28;;;;;;;4.33;3.72;;;;;;;-0.93;87.68;94410.50;1743710;82;22181;-75
2021/03/30 00:43:55;;;;;;;3.83;3.22;;;;;;;-0.93;87.45;94413.95;1713419;82;21542;-75
2021/03/30 00:46:23;;;;;;;19.35;9.78;;;;;;;-1.00;87.40;94409.56;1730144;82;21150;-75
2021/03/30 00:48:50;;;;;;;23.52;13.30;;;;;;;-1.05;87.45;94412.34;1723458;83;21085;-75
2021/03/30 00:51:18;;;;;;;27.00;16.25;;;;;;;-1.10;87.42;94412.42;1767917;80;21120;-76
2021/03/30 00:53:51;;;;;;;16.67;9.90;;;;;;;-1.10;87.58;94416.43;1776470;80;21205;-75
2021/03/30 00:56:27;;;;;;;4.85;4.20;;;;;;;-1.12;87.52;94412.73;1780032;80;21083;-75
2021/03/30 00:58:56;;;;;;;5.62;3.95;;;;;;;-1.18;87.72;94415.24;1778322;79;21111;-77
2021/03/30 01:01:23;;;;;;;5.03;3.95;;;;;;;-1.20;87.74;94413.95;1776761;80;21120;-77
2021/03/30 01:03:51;;;;;;;5.43;3.50;;;;;;;-1.27;87.72;94418.37;1779171;80;21067;-75
2021/03/30 01:06:19;;;;;;;7.07;3.57;;;;;;;-1.32;88.01;94411.77;1728828;83;21061;-77
2021/03/30 01:08:55;;;;;;;8.03;4.30;;;;;;;-1.32;88.21;94414.44;1773911;80;21126;-76
2021/03/30 01:12:10;;;;;;;6.70;5.23;;;;;;;-1.36;88.23;94422.80;1753846;80;21223;-75
2021/03/30 01:15:18;;;;;;;4.90;3.70;;;;;;;-1.35;88.54;94413.17;1721777;81;21062;-76
2021/03/30 01:18:06;;;;;;;5.77;3.60;;;;;;;-1.35;88.50;94411.05;1749537;81;21121;-75
2021/03/30 01:21:26;;;;;;;5.53;3.97;;;;;;;-1.39;88.51;94416.70;1696208;83;21770;-75
2021/03/30 01:24:21;;;;;;;4.55;3.58;;;;;;;-1.46;88.86;94414.45;1760310;80;21129;-75
2021/03/30 01:27:00;;;;;;;4.60;3.55;;;;;;;-1.42;89.12;94407.98;1765488;81;21049;-74
2021/03/30 01:29:48;;;;;;;4.20;3.80;;;;;;;-1.40;89.06;94403.91;1719640;82;21059;-75
2021/03/30 01:32:38;;;;;;;6.62;3.70;;;;;;;-1.40;88.71;94407.13;1747938;81;21109;-76
2021/03/30 01:35:10;;;;;;;4.63;3.10;;;;;;;-1.51;88.49;94402.52;1718916;83;22246;-77
2021/03/30 01:37:44;;;;;;;4.13;3.40;;;;;;;-1.58;88.72;94406.11;1748653;82;21092;-77
2021/03/30 01:40:15;;;;;;;5.60;3.62;;;;;;;-1.63;88.99;94408.34;1721922;82;21056;-76
2021/03/30 01:42:42;;;;;;;3.30;3.00;;;;;;;-1.61;89.42;94403.52;1763280;81;21683;-76
2021/03/30 01:45:10;;;;;;;4.70;3.40;;;;;;;-1.62;89.24;94403.79;1750477;82;21471;-76
2021/03/30 01:47:37;;;;;;;4.33;3.20;;;;;;;-1.72;89.32;94400.23;1736540;81;21810;-77
2021/03/30 01:50:06;;;;;;;5.13;3.57;;;;;;;-1.80;89.51;94394.25;1762600;81;21123;-78
2021/03/30 01:52:34;;;;;;;4.93;3.33;;;;;;;-1.82;89.74;94404.40;1746492;81;21149;-77
2021/03/30 01:55:02;;;;;;;5.33;3.40;;;;;;;-1.81;90.07;94401.19;1727573;81;21139;-77
2021/03/30 01:57:30;;;;;;;4.20;3.23;;;;;;;-1.79;90.04;94402.48;1755757;81;21055;-78
2021/03/30 02:00:00;;;;;;;3.40;3.10;;;;;;;-1.79;90.00;94404.37;1749106;80;21202;-77
2021/03/30 02:02:28;;;;;;;5.97;3.60;;;;;;;-1.82;90.08;94400.40;1794346;79;21561;-78
2021/03/30 02:04:55;;;;;;;4.50;3.10;;;;;;;-1.80;90.32;94401.45;1737088;82;21176;-77
2021/03/30 02:07:24;;;;;;;5.60;3.67;;;;;;;-1.75;90.47;94386.69;1741886;81;21616;-77
2021/03/30 02:09:56;;;;;;;5.77;3.80;;;;;;;-1.74;90.35;94395.72;1802667;79;21122;-76
2021/03/30 02:12:23;;;;;;;4.20;3.80;;;;;;;-1.76;90.42;94392.58;1812314;79;21196;-76
2021/03/30 02:14:50;;;;;;;4.85;3.00;;;;;;;-1.77;90.57;94400.33;1773812;79;21511;-76
2021/03/30 02:17:44;;;;;;;3.67;3.37;;;;;;;-1.73;90.68;94393.84;1702571;83;21064;-75
2021/03/30 02:20:22;;;;;;;3.43;3.13;;;;;;;-1.74;90.58;94396.27;1765045;80;21081;-75
2021/03/30 02:23:10;;;;;;;6.00;3.37;;;;;;;-1.76;90.69;94399.78;1729879;81;21077;-77
2021/03/30 02:25:39;;;;;;;6.90;4.03;;;;;;;-1.77;90.83;94392.33;1772329;80;21364;-75
2021/03/30 02:28:11;;;;;;;4.50;3.50;;;;;;;-1.72;90.96;94388.23;1790461;79;21650;-76
2021/03/30 02:30:40;;;;;;;5.23;3.30;;;;;;;-1.68;91.08;94387.65;1771156;81;21046;-76
2021/03/30 02:33:09;;;;;;;4.43;3.20;;;;;;;-1.58;91.24;94383.44;1775281;79;21057;-76
2021/03/30 02:35:37;;;;;;;12.57;7.67;;;;;;;-1.48;91.18;94386.72;1773647;80;21483;-76
2021/03/30 02:38:07;;;;;;;20.37;13.13;;;;;;;-1.39;90.92;94388.69;1773332;80;22235;-77
2021/03/30 02:40:35;;;;;;;19.47;11.83;;;;;;;-1.35;90.55;94386.49;1740727;81;22285;-76
2021/03/30 02:43:02;;;;;;;24.13;14.03;;;;;;;-1.31;90.13;94392.03;1728822;83;21622;-78
2021/03/30 02:45:30;;;;;;;20.73;12.20;;;;;;;-1.33;89.76;94397.64;1772732;80;21073;-75
2021/03/30 02:48:01;;;;;;;23.70;14.60;;;;;;;-1.33;89.75;94402.20;1771529;79;21188;-75
2021/03/30 02:50:28;;;;;;;25.50;15.97;;;;;;;-1.33;89.55;94391.52;1724723;82;21368;-77
2021/03/30 02:52:56;;;;;;;27.03;14.73;;;;;;;-1.32;89.49;94391.77;1738148;81;21180;-77
2021/03/30 02:55:24;;;;;;;24.10;12.80;;;;;;;-1.30;89.43;94392.27;1770120;79;21685;-78
2021/03/30 02:57:51;;;;;;;29.75;15.00;;;;;;;-1.26;89.35;94389.25;1744611;82;21175;-78
2021/03/30 03:00:19;;;;;;;31.60;15.15;;;;;;;-1.24;89.29;94387.88;1736610;80;21181;-77
2021/03/30 03:02:47;;;;;;;27.13;14.28;;;;;;;-1.21;89.06;94389.14;1752700;81;21208;-76
2021/03/30 03:05:15;;;;;;;26.87;16.90;;;;;;;-1.20;88.95;94381.41;1729737;82;21127;-76
2021/03/30 03:07:43;;;;;;;23.95;13.62;;;;;;;-1.17;88.78;94388.00;1734035;80;21201;-75
2021/03/30 03:10:11;;;;;;;25.57;16.60;;;;;;;-1.16;88.52;94381.60;1740855;82;21092;-76
2021/03/30 03:12:41;;;;;;;19.40;11.53;;;;;;;-1.19;88.44;94382.19;1776074;80;21050;-76
2021/03/30 03:15:14;;;;;;;20.72;12.00;;;;;;;-1.20;88.44;94380.59;1720092;81;21512;-76
2021/03/30 03:17:42;;;;;;;20.95;12.80;;;;;;;-1.20;88.42;94382.73;1750287;81;21121;-76
2021/03/30 03:20:11;;;;;;;21.73;12.73;;;;;;;-1.20;88.37;94380.07;1772932;80;21053;-75
2021/03/30 03:22:39;;;;;;;24.90;14.87;;;;;;;-1.22;88.29;94383.56;1776413;80;21049;-77
2021/03/30 03:25:09;;;;;;;35.20;15.63;;;;;;;-1.22;88.35;94384.91;1740692;82;21190;-76
2021/03/30 03:27:36;;;;;;;24.53;14.17;;;;;;;-1.20;88.36;94382.73;1775991;79;21640;-77
2021/03/30 03:30:06;;;;;;;22.75;13.62;;;;;;;-1.18;88.34;94383.22;1746086;80;21133;-76
2021/03/30 03:32:33;;;;;;;25.32;12.37;;;;;;;-1.13;88.21;94378.31;1746943;81;21085;-76
2021/03/30 03:35:02;;;;;;;22.93;12.60;;;;;;;-1.13;88.13;94377.80;1772522;80;21622;-77
2021/03/30 03:37:31;;;;;;;27.20;14.10;;;;;;;-1.12;88.00;94374.03;1776917;80;21484;-77
2021/03/30 03:39:58;;;;;;;33.00;16.20;;;;;;;-1.12;87.96;94370.57;1771536;79;21112;-78
2021/03/30 03:42:26;;;;;;;21.15;12.73;;;;;;;-1.13;87.90;94372.98;1775575;80;21152;-77
2021/03/30 03:44:53;;;;;;;19.35;10.53;;;;;;;-1.12;87.95;94366.56;1773959;79;21129;-78
2021/03/30 03:47:22;;;;;;;13.90;8.70;;;;;;;-1.11;87.87;94372.14;1773017;79;21065;-76
2021/03/30 03:49:49;;;;;;;11.17;7.60;;;;;;;-1.11;87.83;94374.81;1743987;82;21586;-76
2021/03/30 03:52:17;;;;;;;26.48;13.18;;;;;;;-1.11;87.99;94378.82;1771569;81;21109;-77
2021/03/30 03:54:45;;;;;;;24.95;12.28;;;;;;;-1.06;88.05;94379.48;1713679;82;21138;-77
2021/03/30 03:57:17;;;;;;;18.00;9.30;;;;;;;-1.03;87.73;94385.58;1759593;80;21180;-76
2021/03/30 03:59:45;;;;;;;14.37;8.10;;;;;;;-1.03;87.72;94380.23;1742041;82;21559;-76
2021/03/30 04:02:19;;;;;;;21.45;10.10;;;;;;;-1.00;87.72;94383.66;1772681;80;21183;-75
2021/03/30 04:05:01;;;;;;;28.77;13.85;;;;;;;-1.00;87.74;94388.98;1776467;79;21719;-77
2021/03/30 04:07:44;;;;;;;28.05;14.47;;;;;;;-0.99;87.72;94389.23;1771599;81;21070;-78
2021/03/30 04:10:12;;;;;;;25.27;14.00;;;;;;;-0.94;87.54;94384.87;1776857;80;21056;-76
2021/03/30 04:12:39;;;;;;;17.25;9.30;;;;;;;-0.92;87.50;94389.38;1772509;80;21081;-78
2021/03/30 04:15:09;;;;;;;9.00;5.40;;;;;;;-0.90;87.46;94391.19;1774342;80;21143;-76
2021/03/30 04:17:36;;;;;;;7.80;4.67;;;;;;;-0.89;87.57;94387.45;1774859;80;21371;-76
2021/03/30 04:20:14;;;;;;;18.73;9.53;;;;;;;-0.87;87.81;94385.25;1766215;81;21124;-78
2021/03/30 04:22:48;;;;;;;14.95;9.23;;;;;;;-0.86;87.73;94374.84;1735083;82;21093;-76
2021/03/30 04:25:12;;;;;;;12.68;8.03;;;;;;;-0.87;87.76;94386.05;1776375;80;21160;-76
2021/03/30 04:27:39;;;;;;;20.60;13.48;;;;;;;-0.83;87.73;94379.56;1772721;80;21092;-76
2021/03/30 04:30:09;;;;;;;22.82;12.60;;;;;;;-0.81;87.70;94382.73;1774237;80;22238;-78
2021/03/30 04:32:36;;;;;;;24.23;14.85;;;;;;;-0.77;87.63;94385.05;1775047;79;21129;-75
2021/03/30 04:35:04;;;;;;;25.95;16.10;;;;;;;-0.75;87.19;94376.20;1771832;79;21113;-76
2021/03/30 04:37:32;;;;;;;27.45;16.32;;;;;;;-0.74;86.96;94387.12;1776703;80;21084;-78
2021/03/30 04:40:00;;;;;;;23.25;13.62;;;;;;;-0.74;86.88;94387.91;1772167;80;21041;-77
2021/03/30 04:42:27;;;;;;;23.42;14.18;;;;;;;-0.71;86.94;94383.86;1774822;80;21327;-76
2021/03/30 04:44:55;;;;;;;9.45;5.30;;;;;;;-0.63;87.06;94386.36;1774445;79;21592;-77
2021/03/30 04:47:23;;;;;;;13.78;8.95;;;;;;;-0.57;87.14;94386.48;1772301;80;21049;-76
2021/03/30 04:49:51;;;;;;;17.00;10.05;;;;;;;-0.52;87.27;94384.50;1776910;80;21456;-77
2021/03/30 04:52:19;;;;;;;6.58;4.50;;;;;;;-0.50;87.36;94382.30;1784236;79;21137;-76
2021/03/30 04:54:46;;;;;;;5.58;3.50;;;;;;;-0.49;87.34;94387.09;1775387;80;21202;-76
2021/03/30 04:57:14;;;;;;;4.37;3.62;;;;;;;-0.50;87.71;94386.86;1773948;80;21559;-77
2021/03/30 04:59:41;;;;;;;4.03;3.72;;;;;;;-0.47;87.83;94388.14;1772792;80;21061;-76
2021/03/30 05:02:09;;;;;;;4.53;3.47;;;;;;;-0.44;88.04;94387.00;1776340;80;21041;-75
2021/03/30 05:04:36;;;;;;;3.92;2.95;;;;;;;-0.36;88.11;94388.95;1771578;81;21543;-78
2021/03/30 05:07:04;;;;;;;6.85;5.35;;;;;;;-0.33;87.92;94385.67;1775735;80;21596;-78
2021/03/30 05:09:32;;;;;;;9.05;5.78;;;;;;;-0.29;87.99;94383.19;1747096;80;21215;-75
2021/03/30 05:12:00;;;;;;;12.40;8.23;;;;;;;-0.27;87.64;94388.45;1680136;82;21500;-77
2021/03/30 05:14:27;;;;;;;19.73;12.47;;;;;;;-0.27;87.37;94393.02;1724707;82;21267;-75
2021/03/30 05:16:55;;;;;;;22.40;13.58;;;;;;;-0.23;87.22;94387.30;1723098;83;21156;-75
2021/03/30 05:19:23;;;;;;;24.18;13.98;;;;;;;-0.16;86.87;94388.23;1764531;81;21845;-75
2021/03/30 05:21:51;;;;;;;18.52;12.95;;;;;;;-0.09;86.55;94386.70;1789317;80;21605;-74
2021/03/30 05:24:19;;;;;;;28.40;17.62;;;;;;;-0.02;86.34;94393.76;1804164;78;21463;-75
2021/03/30 05:26:47;;;;;;;14.60;10.15;;;;;;;0.08;86.13;94390.61;1821152;78;21119;-76
2021/03/30 05:29:14;;;;;;;14.07;8.00;;;;;;;0.13;86.05;94385.91;1820887;78;21068;-75
2021/03/30 05:31:42;;;;;;;13.90;10.68;;;;;;;0.20;86.04;94381.47;1784884;80;21200;-75
2021/03/30 05:34:09;;;;;;;12.55;10.05;;;;;;;0.25;86.03;94389.36;1766874;79;21080;-75
2021/03/30 05:36:37;;;;;;;14.90;9.75;;;;;;;0.32;86.13;94396.95;1768064;80;21549;-75
2021/03/30 05:39:05;;;;;;;15.18;9.18;;;;;;;0.41;85.91;94397.23;1786042;79;21541;-75
2021/03/30 05:41:33;;;;;;;14.55;9.25;;;;;;;0.49;85.08;94398.40;1784463;80;21122;-75
2021/03/30 05:44:01;;;;;;;12.03;7.92;;;;;;;0.56;84.39;94401.95;1737197;82;21381;-75
2021/03/30 05:46:31;;;;;;;16.25;9.30;;;;;;;0.57;83.99;94399.53;1782543;80;21174;-75
2021/03/30 05:49:00;;;;;;;18.23;11.20;;;;;;;0.56;83.58;94402.73;1767191;80;21491;-75
2021/03/30 05:51:28;;;;;;;24.10;11.80;;;;;;;0.53;83.19;94401.22;1773974;80;21095;-75
2021/03/30 05:54:18;;;;;;;22.17;12.53;;;;;;;0.49;82.74;94403.75;1770204;79;21095;-74
2021/03/30 05:56:47;;;;;;;23.10;13.85;;;;;;;0.45;82.57;94398.75;1759064;81;22347;-75
2021/03/30 05:59:16;;;;;;;25.23;16.27;;;;;;;0.40;82.62;94403.69;1764018;81;21143;-75
2021/03/30 06:01:44;;;;;;;20.27;12.13;;;;;;;0.42;82.93;94404.19;1708418;81;21634;-76
2021/03/30 06:04:11;;;;;;;16.52;10.90;;;;;;;0.44;83.05;94395.28;1753476;81;21139;-74
2021/03/30 06:06:39;;;;;;;15.80;9.55;;;;;;;0.51;83.25;94401.55;1774523;78;21132;-75
2021/03/30 06:09:07;;;;;;;14.73;8.13;;;;;;;0.59;82.81;94404.80;1758049;81;21804;-75
2021/03/30 06:11:35;;;;;;;15.55;9.73;;;;;;;0.68;82.33;94402.97;1755194;81;21093;-74
2021/03/30 06:14:04;;;;;;;17.55;10.23;;;;;;;0.77;81.98;94398.98;1716236;82;21070;-74
2021/03/30 06:16:36;;;;;;;20.45;12.37;;;;;;;0.87;81.69;94402.73;1715954;81;21070;-74
2021/03/30 06:19:13;;;;;;;15.32;10.35;;;;;;;0.98;81.36;94409.94;1722974;82;21076;-75
2021/03/30 06:21:48;;;;;;;18.32;11.93;;;;;;;1.08;81.08;94406.95;1726904;82;23068;-75
2021/03/30 06:24:26;;;;;;;19.92;11.73;;;;;;;1.20;80.99;94405.02;1742631;79;28730;-74
2021/03/30 06:27:05;;;;;;;20.48;10.75;;;;;;;1.34;80.84;94404.90;1776632;78;21278;-75
2021/03/30 06:29:37;;;;;;;16.97;9.93;;;;;;;1.48;80.42;94398.08;1715840;82;21534;-77
2021/03/30 06:32:11;;;;;;;12.65;8.68;;;;;;;1.58;79.74;94399.91;1716214;82;21095;-74
2021/03/30 06:34:41;;;;;;;14.65;10.10;;;;;;;1.71;79.64;94402.19;1716176;82;21194;-76
2021/03/30 06:37:30;;;;;;;13.90;9.20;;;;;;;1.82;79.39;94404.80;1716025;81;21208;-74
2021/03/30 06:40:06;;;;;;;15.03;8.98;;;;;;;1.92;79.08;94409.06;1715991;82;21149;-75
2021/03/30 06:45:22;;;;;;;18.75;7.22;;;;;;;2.18;78.11;94403.12;1716155;81;21099;-75
2021/03/30 06:47:53;;;;;;;9.80;6.95;;;;;;;2.27;77.11;94399.08;1716114;81;21208;-75
2021/03/30 06:50:30;;;;;;;14.53;8.38;;;;;;;2.34;76.19;94406.09;1692187;83;21643;-76
2021/03/30 06:53:19;;;;;;;17.00;10.58;;;;;;;2.37;75.91;94400.63;1715189;81;21197;-76
2021/03/30 06:55:53;;;;;;;14.30;9.73;;;;;;;2.40;75.69;94400.78;1716218;81;21928;-76
2021/03/30 06:58:25;;;;;;;15.30;9.33;;;;;;;2.42;74.99;94398.58;1716311;82;21130;-75
2021/03/30 07:00:50;;;;;;;15.60;9.63;;;;;;;2.43;74.72;94398.02;1715381;81;21231;-75
2021/03/30 07:03:21;;;;;;;16.37;10.88;;;;;;;2.46;74.42;94399.28;1716136;81;21221;-76
2021/03/30 07:05:52;;;;;;;15.18;8.93;;;;;;;2.50;74.61;94394.29;1715930;81;21158;-76
2021/03/30 07:08:22;;;;;;;14.68;9.53;;;;;;;2.58;74.70;94397.50;1716365;81;21134;-76
2021/03/30 07:10:54;;;;;;;17.55;10.43;;;;;;;2.68;74.12;94397.72;1716240;81;21145;-75
2021/03/30 07:13:23;;;;;;;13.40;9.60;;;;;;;2.79;74.22;94397.61;1716224;81;21291;-75
2021/03/30 07:15:57;;;;;;;13.03;9.95;;;;;;;2.93;73.91;94396.03;1716141;81;21142;-75
2021/03/30 07:18:36;;;;;;;14.83;9.43;;;;;;;3.06;73.36;94384.84;1715762;81;21522;-74
2021/03/30 07:21:20;;;;;;;18.17;9.78;;;;;;;3.19;73.08;94381.13;1715503;82;21078;-76
2021/03/30 07:23:50;;;;;;;20.57;10.68;;;;;;;3.34;73.39;94385.16;1716415;83;21177;-75
2021/03/30 07:26:39;;;;;;;19.75;11.18;;;;;;;3.51;73.16;94378.91;1786116;78;21349;-75
2021/03/30 07:29:17;;;;;;;20.45;11.15;;;;;;;3.67;72.63;94378.54;1710668;81;21165;-75
2021/03/30 07:32:09;;;;;;;18.60;10.70;;;;;;;3.83;71.73;94382.20;1702668;82;21105;-76
2021/03/30 07:35:01;;;;;;;18.20;9.13;;;;;;;4.00;70.50;94381.86;1757725;80;21063;-76
2021/03/30 07:37:45;;;;;;;17.60;9.80;;;;;;;4.17;69.96;94377.65;1761542;78;21151;-75
2021/03/30 07:40:15;;;;;;;15.98;9.85;;;;;;;4.36;69.36;94373.92;1750136;82;21076;-75
2021/03/30 07:42:44;;;;;;;16.82;8.70;;;;;;;4.73;68.35;94376.68;1754445;80;21501;-75
2021/03/30 07:45:13;;;;;;;18.75;10.18;;;;;;;4.73;68.35;94376.68;1764365;81;21091;-74
2021/03/30 07:47:41;;;;;;;16.32;10.10;;;;;;;4.88;67.54;94374.68;1777311;80;21120;-74
2021/03/30 07:50:09;;;;;;;13.50;7.87;;;;;;;5.05;66.63;94377.73;1761635;80;21636;-75
2021/03/30 07:52:45;;;;;;;14.28;8.23;;;;;;;5.22;66.83;94384.03;1773928;80;21917;-74
2021/03/30 07:55:30;;;;;;;13.60;7.83;;;;;;;5.36;65.45;94379.08;1764005;81;21578;-75
2021/03/30 07:58:13;;;;;;;;;;;;;;;5.46;65.16;94382.68;1766817;81;21187;-75
2021/03/30 08:00:46;;;;;;;20.10;10.38;;;;;;;5.54;64.46;94378.28;1764024;81;20220;-76
2021/03/30 08:03:23;;;;;;;15.70;9.33;;;;;;;5.63;64.43;94378.16;1764190;81;21479;-75
2021/03/30 08:06:05;;;;;;;13.28;8.10;;;;;;;5.71;63.21;94378.02;1759607;81;21196;-75
2021/03/30 08:08:49;;;;;;;13.00;8.00;;;;;;;5.79;63.67;94374.95;1783617;79;21513;-75
2021/03/30 08:11:40;;;;;;;9.80;6.90;;;;;;;5.94;63.07;94372.95;1791216;79;21043;-75
2021/03/30 08:14:22;;;;;;;10.75;7.30;;;;;;;6.05;62.38;94382.69;1790371;78;21155;-73
2021/03/30 08:16:55;;;;;;;9.85;6.95;;;;;;;6.14;62.44;94386.05;1788360;80;21522;-73
2021/03/30 08:19:26;;;;;;;9.60;6.95;;;;;;;6.27;62.09;94392.95;1788303;80;22170;-73
2021/03/30 08:21:59;;;;;;;16.67;8.38;;;;;;;6.42;62.34;94388.73;1788198;80;21100;-73
2021/03/30 08:24:48;;;;;;;11.93;7.33;;;;;;;6.61;61.96;94394.05;1788108;79;21115;-74
2021/03/30 08:27:35;;;;;;;11.78;7.20;;;;;;;6.75;61.27;94378.21;1772810;80;21151;-74
2021/03/30 08:30:13;;;;;;;10.48;6.22;;;;;;;6.90;61.18;94384.20;1787600;80;21055;-73
2021/03/30 08:32:47;;;;;;;8.38;5.95;;;;;;;7.00;60.84;94386.97;1733593;82;26747;-73
2021/03/30 08:35:38;;;;;;;18.67;10.82;;;;;;;7.01;60.10;94377.14;1748378;80;21505;-74
2021/03/30 08:38:07;;;;;;;15.85;9.80;;;;;;;7.07;59.86;94393.91;1739057;81;21077;-73
2021/03/30 08:40:40;;;;;;;18.55;10.58;;;;;;;7.13;59.90;94391.71;1713868;83;21159;-73
2021/03/30 08:43:22;;;;;;;12.73;7.90;;;;;;;7.21;59.91;94390.17;1699876;83;26967;-73
2021/03/30 08:46:01;;;;;;;16.42;8.20;;;;;;;7.30;59.59;94394.86;1703740;83;21211;-74
2021/03/30 08:48:41;;;;;;;12.93;8.35;;;;;;;7.34;59.24;94403.62;1744038;80;21136;-74
2021/03/30 08:51:13;;;;;;;11.63;6.92;;;;;;;7.38;59.28;94393.10;1751187;81;21171;-74
2021/03/30 08:53:43;;;;;;;30.43;18.62;;;;;;;7.39;58.91;94390.61;1747198;80;21274;-74
2021/03/30 08:56:11;;;;;;;19.23;11.43;;;;;;;7.41;58.67;94388.89;1747823;82;21126;-74
2021/03/30 08:58:46;;;;;;;15.10;9.20;;;;;;;7.44;58.22;94382.20;1749014;80;21128;-73
2021/03/30 09:01:14;;;;;;;12.28;7.12;;;;;;;7.52;58.13;94370.98;1748448;80;21088;-74
2021/03/30 09:03:43;;;;;;;10.45;6.97;;;;;;;7.70;58.69;94363.27;1747165;80;21152;-74
2021/03/30 09:06:27;;;;;;;10.55;5.92;;;;;;;7.91;57.78;94369.15;1747270;81;21570;-74
2021/03/30 09:08:55;;;;;;;14.78;8.78;;;;;;;8.09;57.20;94360.05;1737431;82;21083;-73
2021/03/30 09:11:25;;;;;;;9.53;6.30;;;;;;;8.19;56.96;94354.04;1702545;82;22183;-73
2021/03/30 09:13:59;;;;;;;9.28;5.45;;;;;;;8.24;57.29;94355.13;1708226;83;21104;-73
2021/03/30 09:16:27;;;;;;;8.00;5.22;;;;;;;8.26;56.71;94356.11;1743873;80;21507;-75
2021/03/30 09:19:18;;;;;;;8.98;5.20;;;;;;;8.26;57.97;94357.47;1756245;80;21168;-75
2021/03/30 09:24:55;;;;;;;8.63;4.85;;;;;;;8.39;57.67;94348.09;1724657;81;22180;-74
2021/03/30 09:27:23;;;;;;;25.15;13.20;;;;;;;8.52;56.85;94359.55;1729814;82;21183;-73
2021/03/30 09:29:56;;;;;;;10.82;5.72;;;;;;;8.64;57.00;94357.24;1765118;81;21558;-74
2021/03/30 09:32:25;;;;;;;4.70;3.62;;;;;;;8.75;56.83;94354.16;1730192;80;21085;-73
2021/03/30 09:34:52;;;;;;;4.60;2.40;;;;;;;8.81;56.76;94358.14;1732741;80;21127;-73
2021/03/30 09:37:20;;;;;;;1.77;1.67;;;;;;;8.83;56.61;94365.33;1755766;80;21724;-73
2021/03/30 09:39:47;;;;;;;2.15;1.92;;;;;;;8.81;57.03;94368.99;1776303;80;21080;-73
2021/03/30 09:42:15;;;;;;;2.05;1.85;;;;;;;8.82;57.13;94365.12;1746546;82;21519;-72
2021/03/30 09:44:43;;;;;;;2.98;2.65;;;;;;;8.89;56.88;94358.48;1680510;84;21140;-73
2021/03/30 09:47:13;;;;;;;4.37;2.80;;;;;;;8.95;56.97;94360.30;1723939;82;21141;-73
2021/03/30 09:49:42;;;;;;;7.10;4.10;;;;;;;9.02;56.82;94365.08;1736849;82;22015;-73
2021/03/30 09:52:13;;;;;;;6.65;3.75;;;;;;;9.09;56.76;94359.20;1723135;82;21188;-74
2021/03/30 09:54:43;;;;;;;7.80;4.42;;;;;;;9.17;57.37;94362.23;1743014;82;21619;-74
2021/03/30 09:57:26;;;;;;;7.87;3.50;;;;;;;9.23;57.23;94360.79;1709282;82;21124;-74
2021/03/30 09:59:53;;;;;;;6.33;4.00;;;;;;;9.32;57.44;94359.75;1701383;82;21166;-73
2021/03/30 10:02:29;;;;;;;6.65;4.10;;;;;;;9.44;57.50;94362.26;1743373;81;21204;-73
2021/03/30 10:04:58;;;;;;;4.65;3.70;;;;;;;9.54;57.12;94364.94;1746645;80;21095;-73
2021/03/30 10:07:39;;;;;;;7.03;5.08;;;;;;;9.64;55.92;94357.53;1763759;80;21191;-73
2021/03/30 10:10:12;;;;;;;5.58;3.65;;;;;;;9.74;56.27;94356.88;1735878;81;21560;-74
2021/03/30 10:12:50;;;;;;;5.25;3.80;;;;;;;9.88;55.56;94354.95;1715585;83;21152;-74
2021/03/30 10:15:36;;;;;;;4.62;3.20;;;;;;;9.98;55.24;94353.73;1700415;84;21374;-73
2021/03/30 10:18:05;;;;;;;6.17;3.40;;;;;;;10.11;55.30;94353.50;1762651;81;21099;-73
2021/03/30 10:20:53;;;;;;;4.83;3.27;;;;;;;10.22;54.05;94347.05;1767136;80;21063;-73
2021/03/30 10:23:28;;;;;;;5.03;3.02;;;;;;;10.32;54.52;94347.59;1735606;80;21151;-73
2021/03/30 10:25:57;;;;;;;4.83;2.62;;;;;;;10.42;52.54;94356.45;1715971;82;21513;-73
2021/03/30 10:28:31;;;;;;;4.25;3.20;;;;;;;10.40;53.04;94349.23;1700741;80;21800;-73
2021/03/30 10:31:07;;;;;;;7.37;3.70;;;;;;;10.31;53.56;94344.67;1718423;82;21188;-73
2021/03/30 10:33:40;;;;;;;5.17;3.00;;;;;;;10.23;54.39;94341.05;1719980;83;21531;-72
2021/03/30 10:36:09;;;;;;;5.03;3.10;;;;;;;10.17;54.63;94340.58;1744943;81;21464;-74
2021/03/30 10:38:38;;;;;;;4.85;3.50;;;;;;;10.10;54.77;94339.71;1725885;82;46696;-74
2021/03/30 10:41:11;;;;;;;4.15;3.30;;;;;;;10.06;55.24;94337.53;1716300;82;22065;-74
2021/03/30 10:43:39;;;;;;;5.08;3.20;;;;;;;10.05;55.50;94335.39;1716085;82;21162;-74
2021/03/30 10:46:20;;;;;;;6.62;3.90;;;;;;;10.02;55.15;94336.13;1715702;83;21597;-74
2021/03/30 10:49:02;;;;;;;6.20;3.92;;;;;;;10.01;55.38;94338.64;1715830;82;21152;-75
2021/03/30 10:51:32;;;;;;;5.80;4.17;;;;;;;10.04;55.48;94338.46;1685745;85;21069;-75
2021/03/30 10:54:00;;;;;;;4.92;3.72;;;;;;;10.04;54.97;94350.69;1743952;81;21211;-73
2021/03/30 10:56:31;;;;;;;8.05;3.83;;;;;;;10.01;55.39;94344.66;1781895;79;21091;-73
2021/03/30 10:58:58;;;;;;;4.85;3.25;;;;;;;10.01;55.04;94341.94;1796231;79;21175;-73
2021/03/30 11:01:26;;;;;;;4.62;3.90;;;;;;;9.99;55.41;94335.50;1791113;79;21301;-75
2021/03/30 11:03:53;;;;;;;6.75;3.87;;;;;;;9.96;55.32;94335.65;1798345;79;21154;-75
2021/03/30 11:06:21;;;;;;;5.72;4.00;;;;;;;9.93;55.70;94338.34;1771384;79;22489;-73
2021/03/30 11:08:50;;;;;;;5.30;3.90;;;;;;;9.93;56.21;94332.34;1786912;79;21119;-73
2021/03/30 11:11:17;;;;;;;6.67;4.37;;;;;;;9.88;55.92;94327.20;1782813;79;21056;-73
2021/03/30 11:13:49;;;;;;;7.35;4.30;;;;;;;9.86;56.39;94328.74;1774981;78;21190;-75
2021/03/30 11:16:16;;;;;;;6.53;3.50;;;;;;;9.86;56.70;94327.38;1794024;79;21052;-73
2021/03/30 11:18:46;;;;;;;5.95;4.15;;;;;;;9.87;56.94;94329.72;1768992;80;21072;-73
2021/03/30 11:21:13;;;;;;;5.97;4.05;;;;;;;9.91;56.77;94319.69;1790356;80;21578;-75
2021/03/30 11:23:43;;;;;;;5.45;3.90;;;;;;;9.97;56.90;94318.80;1755035;80;21141;-74
2021/03/30 11:26:13;;;;;;;6.20;3.95;;;;;;;10.05;56.06;94320.45;1743745;81;21673;-74
2021/03/30 11:28:44;;;;;;;5.25;4.33;;;;;;;10.10;56.43;94322.83;1773013;78;21234;-74
2021/03/30 11:31:29;;;;;;;6.83;4.00;;;;;;;10.16;56.55;94323.30;1794982;79;21550;-74
2021/03/30 11:33:50;;;;;;;4.90;3.90;;;;;;;10.21;56.30;94322.96;1700819;83;21084;-74
2021/03/30 11:36:16;;;;;;;9.03;4.35;;;;;;;10.22;55.87;94321.22;1712571;82;21075;-74
2021/03/30 11:38:43;;;;;;;7.03;3.72;;;;;;;10.19;55.79;94319.81;1735694;82;21072;-74
2021/03/30 11:41:11;;;;;;;6.17;3.75;;;;;;;10.17;55.84;94318.84;1767751;80;21163;-74
2021/03/30 11:43:39;;;;;;;4.10;3.47;;;;;;;10.18;55.78;94316.91;1782530;80;21625;-75
2021/03/30 11:46:08;;;;;;;4.65;3.15;;;;;;;10.15;55.60;94310.84;1759879;80;21075;-76
2021/03/30 11:48:37;;;;;;;6.20;3.75;;;;;;;10.11;55.40;94316.81;1776966;80;21057;-74
2021/03/30 11:51:05;;;;;;;4.65;3.02;;;;;;;10.07;55.46;94318.70;1773361;79;21507;-74
2021/03/30 11:53:35;;;;;;;5.17;3.72;;;;;;;10.05;55.73;94315.02;1754750;81;21588;-75
2021/03/30 11:56:03;;;;;;;3.67;3.17;;;;;;;10.06;55.71;94316.57;1736274;82;21442;-74
2021/03/30 11:58:31;;;;;;;6.17;3.72;;;;;;;10.06;55.72;94311.14;1739885;81;21583;-74
2021/03/30 12:00:59;;;;;;;7.75;4.25;;;;;;;10.05;55.91;94313.66;1745151;82;21191;-74